sensor_id;sensor_type;location;lat;lon;timestamp;P1;durP1;ratioP1;P2;durP2;ratioP2
63112;SDS011;49206;48.020;21.378;2023-03-19T00:00:42;43.35;;;23.83;;
63112;SDS011;49206;48.020;21.378;2023-03-19T00:01:44;41.05;;;23.58;;
63112;SDS011;49206;48.020;21.378;2023-03-19T00:02:47;46.75;;;24.95;;
63112;SDS011;49206;48.020;21.378;2023-03-19T00:03:52;40.13;;;23.40;;
63112;SDS011;49206;48.020;21.378;2023-03-19T00:04:54;50.63;;;26.25;;
63112;SDS011;49206;48.020;21.378;2023-03-19T00:05:57;53.17;;;26.00;;
63112;SDS011;49206;48.020;21.378;2023-03-19T00:06:59;49.85;;;25.63;;
63112;SDS011;49206;48.020;21.378;2023-03-19T00:08:02;46.95;;;24.77;;
63112;SDS011;49206;48.020;21.378;2023-03-19T00:09:05;55.30;;;29.23;;
63112;SDS011;49206;48.020;21.378;2023-03-19T00:10:08;51.67;;;27.13;;
63112;SDS011;49206;48.020;21.378;2023-03-19T00:11:11;48.13;;;26.67;;
63112;SDS011;49206;48.020;21.378;2023-03-19T00:12:14;46.60;;;25.40;;
63112;SDS011;49206;48.020;21.378;2023-03-19T00:13:16;49.83;;;24.55;;
63112;SDS011;49206;48.020;21.378;2023-03-19T00:14:19;43.63;;;27.23;;
63112;SDS011;49206;48.020;21.378;2023-03-19T00:15:21;45.60;;;24.90;;
63112;SDS011;49206;48.020;21.378;2023-03-19T00:16:25;49.38;;;26.30;;
63112;SDS011;49206;48.020;21.378;2023-03-19T00:17:28;42.22;;;24.00;;
63112;SDS011;49206;48.020;21.378;2023-03-19T00:18:30;45.53;;;25.70;;
63112;SDS011;49206;48.020;21.378;2023-03-19T00:19:33;52.55;;;27.85;;
63112;SDS011;49206;48.020;21.378;2023-03-19T00:20:35;46.05;;;25.13;;
63112;SDS011;49206;48.020;21.378;2023-03-19T00:21:38;45.65;;;26.65;;
63112;SDS011;49206;48.020;21.378;2023-03-19T00:22:41;45.75;;;24.10;;
63112;SDS011;49206;48.020;21.378;2023-03-19T00:23:43;43.13;;;26.50;;
63112;SDS011;49206;48.020;21.378;2023-03-19T00:24:45;54.13;;;26.33;;
63112;SDS011;49206;48.020;21.378;2023-03-19T00:25:48;51.38;;;26.83;;
63112;SDS011;49206;48.020;21.378;2023-03-19T00:26:50;53.47;;;26.20;;
63112;SDS011;49206;48.020;21.378;2023-03-19T00:27:53;48.50;;;25.67;;
63112;SDS011;49206;48.020;21.378;2023-03-19T00:28:56;56.35;;;26.23;;
63112;SDS011;49206;48.020;21.378;2023-03-19T00:29:58;52.90;;;27.65;;
63112;SDS011;49206;48.020;21.378;2023-03-19T00:31:11;50.38;;;28.42;;
63112;SDS011;49206;48.020;21.378;2023-03-19T00:32:14;45.08;;;26.63;;
63112;SDS011;49206;48.020;21.378;2023-03-19T00:33:18;50.83;;;27.38;;
63112;SDS011;49206;48.020;21.378;2023-03-19T00:34:22;44.60;;;24.73;;
63112;SDS011;49206;48.020;21.378;2023-03-19T00:35:24;47.92;;;26.15;;
63112;SDS011;49206;48.020;21.378;2023-03-19T00:36:26;50.97;;;26.92;;
63112;SDS011;49206;48.020;21.378;2023-03-19T00:37:31;50.25;;;26.10;;
63112;SDS011;49206;48.020;21.378;2023-03-19T00:38:33;50.53;;;26.20;;
63112;SDS011;49206;48.020;21.378;2023-03-19T00:39:36;47.70;;;27.10;;
63112;SDS011;49206;48.020;21.378;2023-03-19T00:40:39;51.58;;;27.83;;
63112;SDS011;49206;48.020;21.378;2023-03-19T00:41:42;53.45;;;29.00;;
63112;SDS011;49206;48.020;21.378;2023-03-19T00:42:51;47.75;;;29.33;;
63112;SDS011;49206;48.020;21.378;2023-03-19T00:43:54;43.97;;;25.50;;
63112;SDS011;49206;48.020;21.378;2023-03-19T00:44:56;54.17;;;28.70;;
63112;SDS011;49206;48.020;21.378;2023-03-19T00:45:59;49.53;;;25.75;;
63112;SDS011;49206;48.020;21.378;2023-03-19T00:47:02;47.45;;;26.85;;
63112;SDS011;49206;48.020;21.378;2023-03-19T00:48:04;45.38;;;26.67;;
63112;SDS011;49206;48.020;21.378;2023-03-19T00:49:07;46.88;;;24.67;;
63112;SDS011;49206;48.020;21.378;2023-03-19T00:50:10;50.05;;;26.25;;
63112;SDS011;49206;48.020;21.378;2023-03-19T00:51:12;48.47;;;27.48;;
63112;SDS011;49206;48.020;21.378;2023-03-19T00:52:14;49.47;;;26.20;;
63112;SDS011;49206;48.020;21.378;2023-03-19T00:53:17;52.20;;;27.65;;
63112;SDS011;49206;48.020;21.378;2023-03-19T00:54:20;50.13;;;26.08;;
63112;SDS011;49206;48.020;21.378;2023-03-19T00:55:23;49.28;;;25.45;;
63112;SDS011;49206;48.020;21.378;2023-03-19T00:56:26;45.75;;;25.85;;
63112;SDS011;49206;48.020;21.378;2023-03-19T00:57:29;44.35;;;27.80;;
63112;SDS011;49206;48.020;21.378;2023-03-19T00:58:31;45.10;;;25.88;;
63112;SDS011;49206;48.020;21.378;2023-03-19T00:59:35;45.22;;;24.30;;
63112;SDS011;49206;48.020;21.378;2023-03-19T01:00:38;45.38;;;26.98;;
63112;SDS011;49206;48.020;21.378;2023-03-19T01:01:41;52.58;;;28.65;;
63112;SDS011;49206;48.020;21.378;2023-03-19T01:02:44;47.83;;;27.17;;
63112;SDS011;49206;48.020;21.378;2023-03-19T01:03:47;46.20;;;25.60;;
63112;SDS011;49206;48.020;21.378;2023-03-19T01:04:50;49.97;;;26.48;;
63112;SDS011;49206;48.020;21.378;2023-03-19T01:05:52;55.17;;;27.05;;
63112;SDS011;49206;48.020;21.378;2023-03-19T01:06:55;50.80;;;27.48;;
63112;SDS011;49206;48.020;21.378;2023-03-19T01:07:57;50.95;;;27.05;;
63112;SDS011;49206;48.020;21.378;2023-03-19T01:08:59;48.53;;;26.85;;
63112;SDS011;49206;48.020;21.378;2023-03-19T01:10:01;47.00;;;25.23;;
63112;SDS011;49206;48.020;21.378;2023-03-19T01:11:09;49.22;;;28.92;;
63112;SDS011;49206;48.020;21.378;2023-03-19T01:12:11;47.28;;;26.30;;
63112;SDS011;49206;48.020;21.378;2023-03-19T01:13:13;44.75;;;26.08;;
63112;SDS011;49206;48.020;21.378;2023-03-19T01:14:16;55.40;;;26.73;;
63112;SDS011;49206;48.020;21.378;2023-03-19T01:15:18;51.83;;;26.65;;
63112;SDS011;49206;48.020;21.378;2023-03-19T01:16:21;46.90;;;26.80;;
63112;SDS011;49206;48.020;21.378;2023-03-19T01:17:24;52.85;;;27.42;;
63112;SDS011;49206;48.020;21.378;2023-03-19T01:18:29;46.92;;;25.45;;
63112;SDS011;49206;48.020;21.378;2023-03-19T01:19:32;50.10;;;27.92;;
63112;SDS011;49206;48.020;21.378;2023-03-19T01:20:35;47.65;;;25.30;;
63112;SDS011;49206;48.020;21.378;2023-03-19T01:22:42;50.45;;;25.75;;
63112;SDS011;49206;48.020;21.378;2023-03-19T01:23:45;51.53;;;26.60;;
63112;SDS011;49206;48.020;21.378;2023-03-19T01:24:47;52.28;;;26.70;;
63112;SDS011;49206;48.020;21.378;2023-03-19T01:25:50;50.58;;;26.20;;
63112;SDS011;49206;48.020;21.378;2023-03-19T01:26:53;49.50;;;26.05;;
63112;SDS011;49206;48.020;21.378;2023-03-19T01:28:09;50.47;;;27.65;;
63112;SDS011;49206;48.020;21.378;2023-03-19T01:29:13;52.38;;;26.95;;
63112;SDS011;49206;48.020;21.378;2023-03-19T01:30:16;55.03;;;29.45;;
63112;SDS011;49206;48.020;21.378;2023-03-19T01:31:47;50.58;;;28.50;;
63112;SDS011;49206;48.020;21.378;2023-03-19T01:33:07;51.30;;;29.63;;
63112;SDS011;49206;48.020;21.378;2023-03-19T01:34:28;48.90;;;29.77;;
63112;SDS011;49206;48.020;21.378;2023-03-19T01:35:39;55.55;;;26.98;;
63112;SDS011;49206;48.020;21.378;2023-03-19T01:36:42;50.40;;;26.60;;
63112;SDS011;49206;48.020;21.378;2023-03-19T01:37:45;49.10;;;25.95;;
63112;SDS011;49206;48.020;21.378;2023-03-19T01:38:48;52.97;;;27.20;;
63112;SDS011;49206;48.020;21.378;2023-03-19T01:39:51;49.17;;;27.77;;
63112;SDS011;49206;48.020;21.378;2023-03-19T01:40:53;61.08;;;29.73;;
63112;SDS011;49206;48.020;21.378;2023-03-19T01:41:59;53.22;;;28.83;;
63112;SDS011;49206;48.020;21.378;2023-03-19T01:43:12;55.45;;;31.65;;
63112;SDS011;49206;48.020;21.378;2023-03-19T01:44:34;53.00;;;26.90;;
63112;SDS011;49206;48.020;21.378;2023-03-19T01:45:59;53.53;;;27.13;;
63112;SDS011;49206;48.020;21.378;2023-03-19T01:47:41;58.10;;;27.70;;
63112;SDS011;49206;48.020;21.378;2023-03-19T01:48:53;53.50;;;30.60;;
63112;SDS011;49206;48.020;21.378;2023-03-19T01:49:56;58.42;;;29.83;;
63112;SDS011;49206;48.020;21.378;2023-03-19T01:51:19;54.50;;;32.90;;
63112;SDS011;49206;48.020;21.378;2023-03-19T01:52:38;54.28;;;29.15;;
63112;SDS011;49206;48.020;21.378;2023-03-19T01:53:49;50.97;;;29.33;;
63112;SDS011;49206;48.020;21.378;2023-03-19T01:55:15;63.42;;;32.10;;
63112;SDS011;49206;48.020;21.378;2023-03-19T01:56:29;53.53;;;28.33;;
63112;SDS011;49206;48.020;21.378;2023-03-19T01:57:56;56.63;;;27.88;;
63112;SDS011;49206;48.020;21.378;2023-03-19T02:00:48;58.28;;;31.65;;
63112;SDS011;49206;48.020;21.378;2023-03-19T02:01:52;52.05;;;28.60;;
63112;SDS011;49206;48.020;21.378;2023-03-19T02:02:57;57.80;;;30.27;;
63112;SDS011;49206;48.020;21.378;2023-03-19T02:04:17;66.53;;;30.13;;
63112;SDS011;49206;48.020;21.378;2023-03-19T02:05:20;57.13;;;30.55;;
63112;SDS011;49206;48.020;21.378;2023-03-19T02:06:31;61.25;;;30.77;;
63112;SDS011;49206;48.020;21.378;2023-03-19T02:07:34;64.13;;;34.08;;
63112;SDS011;49206;48.020;21.378;2023-03-19T02:09:40;64.95;;;33.53;;
63112;SDS011;49206;48.020;21.378;2023-03-19T02:10:43;61.25;;;30.73;;
63112;SDS011;49206;48.020;21.378;2023-03-19T02:11:47;61.28;;;31.20;;
63112;SDS011;49206;48.020;21.378;2023-03-19T02:12:50;59.72;;;31.98;;
63112;SDS011;49206;48.020;21.378;2023-03-19T02:13:53;58.92;;;31.25;;
63112;SDS011;49206;48.020;21.378;2023-03-19T02:14:55;63.47;;;35.17;;
63112;SDS011;49206;48.020;21.378;2023-03-19T02:15:58;55.97;;;31.67;;
63112;SDS011;49206;48.020;21.378;2023-03-19T02:17:01;57.15;;;31.38;;
63112;SDS011;49206;48.020;21.378;2023-03-19T02:18:03;57.00;;;31.23;;
63112;SDS011;49206;48.020;21.378;2023-03-19T02:19:07;57.67;;;34.40;;
63112;SDS011;49206;48.020;21.378;2023-03-19T02:20:31;59.20;;;30.02;;
63112;SDS011;49206;48.020;21.378;2023-03-19T02:21:36;58.25;;;28.92;;
63112;SDS011;49206;48.020;21.378;2023-03-19T02:22:40;58.35;;;29.77;;
63112;SDS011;49206;48.020;21.378;2023-03-19T02:24:58;52.75;;;33.17;;
63112;SDS011;49206;48.020;21.378;2023-03-19T02:27:09;56.13;;;28.83;;
63112;SDS011;49206;48.020;21.378;2023-03-19T02:28:16;51.75;;;28.42;;
63112;SDS011;49206;48.020;21.378;2023-03-19T02:29:21;54.83;;;31.20;;
63112;SDS011;49206;48.020;21.378;2023-03-19T02:30:26;56.85;;;31.80;;
63112;SDS011;49206;48.020;21.378;2023-03-19T02:31:29;53.83;;;31.73;;
63112;SDS011;49206;48.020;21.378;2023-03-19T02:32:32;54.22;;;28.10;;
63112;SDS011;49206;48.020;21.378;2023-03-19T02:33:35;57.13;;;30.50;;
63112;SDS011;49206;48.020;21.378;2023-03-19T02:34:38;52.97;;;28.65;;
63112;SDS011;49206;48.020;21.378;2023-03-19T02:35:41;50.88;;;26.70;;
63112;SDS011;49206;48.020;21.378;2023-03-19T02:36:46;47.90;;;30.23;;
63112;SDS011;49206;48.020;21.378;2023-03-19T02:37:49;53.25;;;29.20;;
63112;SDS011;49206;48.020;21.378;2023-03-19T02:38:55;51.53;;;29.27;;
63112;SDS011;49206;48.020;21.378;2023-03-19T02:41:04;47.40;;;26.50;;
63112;SDS011;49206;48.020;21.378;2023-03-19T02:42:07;50.67;;;27.23;;
63112;SDS011;49206;48.020;21.378;2023-03-19T02:43:10;49.58;;;28.20;;
63112;SDS011;49206;48.020;21.378;2023-03-19T02:44:12;51.65;;;29.25;;
63112;SDS011;49206;48.020;21.378;2023-03-19T02:45:14;47.90;;;26.00;;
63112;SDS011;49206;48.020;21.378;2023-03-19T02:46:17;46.78;;;26.10;;
63112;SDS011;49206;48.020;21.378;2023-03-19T02:47:20;47.15;;;27.10;;
63112;SDS011;49206;48.020;21.378;2023-03-19T02:48:22;46.28;;;26.77;;
63112;SDS011;49206;48.020;21.378;2023-03-19T02:49:25;48.75;;;26.23;;
63112;SDS011;49206;48.020;21.378;2023-03-19T02:50:27;50.78;;;26.35;;
63112;SDS011;49206;48.020;21.378;2023-03-19T02:51:30;44.97;;;27.08;;
63112;SDS011;49206;48.020;21.378;2023-03-19T02:52:33;47.70;;;25.45;;
63112;SDS011;49206;48.020;21.378;2023-03-19T02:53:35;44.25;;;25.60;;
63112;SDS011;49206;48.020;21.378;2023-03-19T02:54:37;46.65;;;26.25;;
63112;SDS011;49206;48.020;21.378;2023-03-19T02:55:40;49.00;;;26.33;;
63112;SDS011;49206;48.020;21.378;2023-03-19T02:56:42;51.53;;;29.75;;
63112;SDS011;49206;48.020;21.378;2023-03-19T02:57:45;55.22;;;30.25;;
63112;SDS011;49206;48.020;21.378;2023-03-19T02:58:47;52.33;;;30.80;;
63112;SDS011;49206;48.020;21.378;2023-03-19T02:59:50;53.83;;;27.65;;
63112;SDS011;49206;48.020;21.378;2023-03-19T03:00:53;50.70;;;27.85;;
63112;SDS011;49206;48.020;21.378;2023-03-19T03:01:55;53.47;;;30.88;;
63112;SDS011;49206;48.020;21.378;2023-03-19T03:02:58;49.70;;;27.08;;
63112;SDS011;49206;48.020;21.378;2023-03-19T03:04:01;53.47;;;27.63;;
63112;SDS011;49206;48.020;21.378;2023-03-19T03:05:03;53.72;;;30.30;;
63112;SDS011;49206;48.020;21.378;2023-03-19T03:06:07;49.10;;;26.73;;
63112;SDS011;49206;48.020;21.378;2023-03-19T03:07:09;50.33;;;27.90;;
63112;SDS011;49206;48.020;21.378;2023-03-19T03:08:12;42.17;;;24.92;;
63112;SDS011;49206;48.020;21.378;2023-03-19T03:09:15;51.38;;;29.42;;
63112;SDS011;49206;48.020;21.378;2023-03-19T03:10:35;49.95;;;26.77;;
63112;SDS011;49206;48.020;21.378;2023-03-19T03:11:38;50.55;;;28.00;;
63112;SDS011;49206;48.020;21.378;2023-03-19T03:12:43;48.83;;;28.50;;
63112;SDS011;49206;48.020;21.378;2023-03-19T03:13:45;52.28;;;27.45;;
63112;SDS011;49206;48.020;21.378;2023-03-19T03:14:48;44.78;;;25.40;;
63112;SDS011;49206;48.020;21.378;2023-03-19T03:15:52;44.25;;;25.63;;
63112;SDS011;49206;48.020;21.378;2023-03-19T03:16:54;50.33;;;25.85;;
63112;SDS011;49206;48.020;21.378;2023-03-19T03:17:58;52.17;;;28.17;;
63112;SDS011;49206;48.020;21.378;2023-03-19T03:19:00;50.33;;;26.65;;
63112;SDS011;49206;48.020;21.378;2023-03-19T03:20:06;50.22;;;28.35;;
63112;SDS011;49206;48.020;21.378;2023-03-19T03:21:09;50.53;;;27.48;;
63112;SDS011;49206;48.020;21.378;2023-03-19T03:22:12;53.90;;;28.33;;
63112;SDS011;49206;48.020;21.378;2023-03-19T03:23:14;52.58;;;28.60;;
63112;SDS011;49206;48.020;21.378;2023-03-19T03:24:17;54.45;;;29.63;;
63112;SDS011;49206;48.020;21.378;2023-03-19T03:25:20;52.75;;;27.13;;
63112;SDS011;49206;48.020;21.378;2023-03-19T03:26:23;64.95;;;31.05;;
63112;SDS011;49206;48.020;21.378;2023-03-19T03:27:26;56.92;;;29.23;;
63112;SDS011;49206;48.020;21.378;2023-03-19T03:28:28;54.72;;;29.63;;
63112;SDS011;49206;48.020;21.378;2023-03-19T03:29:31;59.10;;;28.20;;
63112;SDS011;49206;48.020;21.378;2023-03-19T03:30:33;52.33;;;26.35;;
63112;SDS011;49206;48.020;21.378;2023-03-19T03:31:36;56.67;;;28.63;;
63112;SDS011;49206;48.020;21.378;2023-03-19T03:32:39;58.28;;;28.73;;
63112;SDS011;49206;48.020;21.378;2023-03-19T03:33:41;57.38;;;27.02;;
63112;SDS011;49206;48.020;21.378;2023-03-19T03:34:44;61.53;;;27.23;;
63112;SDS011;49206;48.020;21.378;2023-03-19T03:35:47;57.50;;;26.92;;
63112;SDS011;49206;48.020;21.378;2023-03-19T03:36:50;62.17;;;30.17;;
63112;SDS011;49206;48.020;21.378;2023-03-19T03:37:53;53.58;;;28.10;;
63112;SDS011;49206;48.020;21.378;2023-03-19T03:38:55;52.38;;;27.98;;
63112;SDS011;49206;48.020;21.378;2023-03-19T03:39:58;47.15;;;25.45;;
63112;SDS011;49206;48.020;21.378;2023-03-19T03:41:01;47.05;;;25.10;;
63112;SDS011;49206;48.020;21.378;2023-03-19T03:42:04;46.92;;;23.50;;
63112;SDS011;49206;48.020;21.378;2023-03-19T03:43:08;46.15;;;26.17;;
63112;SDS011;49206;48.020;21.378;2023-03-19T03:44:11;41.28;;;25.58;;
63112;SDS011;49206;48.020;21.378;2023-03-19T03:45:15;46.42;;;24.98;;
63112;SDS011;49206;48.020;21.378;2023-03-19T03:46:19;42.33;;;24.23;;
63112;SDS011;49206;48.020;21.378;2023-03-19T03:47:24;44.22;;;26.40;;
63112;SDS011;49206;48.020;21.378;2023-03-19T03:48:26;45.08;;;25.17;;
63112;SDS011;49206;48.020;21.378;2023-03-19T03:49:29;41.40;;;24.05;;
63112;SDS011;49206;48.020;21.378;2023-03-19T03:50:33;43.38;;;25.45;;
63112;SDS011;49206;48.020;21.378;2023-03-19T03:51:40;49.13;;;25.52;;
63112;SDS011;49206;48.020;21.378;2023-03-19T03:52:43;49.17;;;25.27;;
63112;SDS011;49206;48.020;21.378;2023-03-19T03:53:48;47.42;;;26.58;;
63112;SDS011;49206;48.020;21.378;2023-03-19T03:54:51;52.85;;;28.73;;
63112;SDS011;49206;48.020;21.378;2023-03-19T03:55:53;45.58;;;24.38;;
63112;SDS011;49206;48.020;21.378;2023-03-19T03:57:00;45.90;;;25.58;;
63112;SDS011;49206;48.020;21.378;2023-03-19T03:58:05;45.95;;;24.15;;
63112;SDS011;49206;48.020;21.378;2023-03-19T03:59:07;48.22;;;23.27;;
63112;SDS011;49206;48.020;21.378;2023-03-19T04:00:10;42.95;;;23.88;;
63112;SDS011;49206;48.020;21.378;2023-03-19T04:01:17;42.40;;;23.52;;
63112;SDS011;49206;48.020;21.378;2023-03-19T04:02:24;40.47;;;23.98;;
63112;SDS011;49206;48.020;21.378;2023-03-19T04:03:28;42.15;;;25.00;;
63112;SDS011;49206;48.020;21.378;2023-03-19T04:04:31;45.78;;;23.98;;
63112;SDS011;49206;48.020;21.378;2023-03-19T04:05:34;41.10;;;21.38;;
63112;SDS011;49206;48.020;21.378;2023-03-19T04:06:38;43.28;;;24.13;;
63112;SDS011;49206;48.020;21.378;2023-03-19T04:07:47;41.22;;;23.90;;
63112;SDS011;49206;48.020;21.378;2023-03-19T04:08:49;38.45;;;22.63;;
63112;SDS011;49206;48.020;21.378;2023-03-19T04:09:52;42.92;;;24.25;;
63112;SDS011;49206;48.020;21.378;2023-03-19T04:10:55;47.05;;;22.92;;
63112;SDS011;49206;48.020;21.378;2023-03-19T04:11:57;40.95;;;23.65;;
63112;SDS011;49206;48.020;21.378;2023-03-19T04:13:00;41.78;;;22.98;;
63112;SDS011;49206;48.020;21.378;2023-03-19T04:14:04;41.70;;;24.70;;
63112;SDS011;49206;48.020;21.378;2023-03-19T04:15:10;39.38;;;22.10;;
63112;SDS011;49206;48.020;21.378;2023-03-19T04:16:15;34.88;;;21.63;;
63112;SDS011;49206;48.020;21.378;2023-03-19T04:17:18;42.60;;;27.25;;
63112;SDS011;49206;48.020;21.378;2023-03-19T04:18:21;42.97;;;25.25;;
63112;SDS011;49206;48.020;21.378;2023-03-19T04:19:23;41.00;;;23.95;;
63112;SDS011;49206;48.020;21.378;2023-03-19T04:20:26;38.92;;;22.73;;
63112;SDS011;49206;48.020;21.378;2023-03-19T04:21:28;37.90;;;21.13;;
63112;SDS011;49206;48.020;21.378;2023-03-19T04:22:31;40.22;;;23.15;;
63112;SDS011;49206;48.020;21.378;2023-03-19T04:23:34;38.08;;;23.77;;
63112;SDS011;49206;48.020;21.378;2023-03-19T04:24:37;44.65;;;24.98;;
63112;SDS011;49206;48.020;21.378;2023-03-19T04:25:40;42.13;;;23.17;;
63112;SDS011;49206;48.020;21.378;2023-03-19T04:26:43;45.72;;;23.63;;
63112;SDS011;49206;48.020;21.378;2023-03-19T04:27:50;42.25;;;23.48;;
63112;SDS011;49206;48.020;21.378;2023-03-19T04:28:53;38.33;;;23.08;;
63112;SDS011;49206;48.020;21.378;2023-03-19T04:29:56;40.08;;;21.20;;
63112;SDS011;49206;48.020;21.378;2023-03-19T04:31:02;34.80;;;21.85;;
63112;SDS011;49206;48.020;21.378;2023-03-19T04:32:07;41.38;;;20.98;;
63112;SDS011;49206;48.020;21.378;2023-03-19T04:33:10;41.03;;;21.67;;
63112;SDS011;49206;48.020;21.378;2023-03-19T04:34:13;36.40;;;21.55;;
63112;SDS011;49206;48.020;21.378;2023-03-19T04:35:15;43.17;;;24.65;;
63112;SDS011;49206;48.020;21.378;2023-03-19T04:36:19;40.42;;;23.20;;
63112;SDS011;49206;48.020;21.378;2023-03-19T04:37:22;38.85;;;23.25;;
63112;SDS011;49206;48.020;21.378;2023-03-19T04:38:25;39.33;;;21.55;;
63112;SDS011;49206;48.020;21.378;2023-03-19T04:39:29;37.80;;;23.15;;
63112;SDS011;49206;48.020;21.378;2023-03-19T04:40:31;48.50;;;25.15;;
63112;SDS011;49206;48.020;21.378;2023-03-19T04:41:35;38.58;;;20.65;;
63112;SDS011;49206;48.020;21.378;2023-03-19T04:43:00;40.00;;;23.88;;
63112;SDS011;49206;48.020;21.378;2023-03-19T04:44:06;38.28;;;24.33;;
63112;SDS011;49206;48.020;21.378;2023-03-19T04:45:10;39.47;;;21.55;;
63112;SDS011;49206;48.020;21.378;2023-03-19T04:46:14;42.28;;;22.90;;
63112;SDS011;49206;48.020;21.378;2023-03-19T04:47:17;39.63;;;21.65;;
63112;SDS011;49206;48.020;21.378;2023-03-19T04:48:27;44.97;;;24.00;;
63112;SDS011;49206;48.020;21.378;2023-03-19T04:49:29;44.25;;;25.02;;
63112;SDS011;49206;48.020;21.378;2023-03-19T04:50:36;42.53;;;22.50;;
63112;SDS011;49206;48.020;21.378;2023-03-19T04:51:39;39.42;;;22.40;;
63112;SDS011;49206;48.020;21.378;2023-03-19T04:52:42;41.35;;;23.08;;
63112;SDS011;49206;48.020;21.378;2023-03-19T04:53:45;43.08;;;24.35;;
63112;SDS011;49206;48.020;21.378;2023-03-19T04:54:48;39.90;;;20.85;;
63112;SDS011;49206;48.020;21.378;2023-03-19T04:55:51;39.83;;;20.92;;
63112;SDS011;49206;48.020;21.378;2023-03-19T04:56:54;34.85;;;22.70;;
63112;SDS011;49206;48.020;21.378;2023-03-19T04:57:59;42.90;;;22.55;;
63112;SDS011;49206;48.020;21.378;2023-03-19T04:59:04;38.90;;;22.02;;
63112;SDS011;49206;48.020;21.378;2023-03-19T05:00:07;35.83;;;21.95;;
63112;SDS011;49206;48.020;21.378;2023-03-19T05:01:14;40.78;;;22.08;;
63112;SDS011;49206;48.020;21.378;2023-03-19T05:02:35;39.40;;;21.83;;
63112;SDS011;49206;48.020;21.378;2023-03-19T05:03:38;36.60;;;20.23;;
63112;SDS011;49206;48.020;21.378;2023-03-19T05:04:41;35.58;;;22.90;;
63112;SDS011;49206;48.020;21.378;2023-03-19T05:05:46;38.05;;;22.48;;
63112;SDS011;49206;48.020;21.378;2023-03-19T05:06:49;38.33;;;20.95;;
63112;SDS011;49206;48.020;21.378;2023-03-19T05:07:52;38.28;;;22.75;;
63112;SDS011;49206;48.020;21.378;2023-03-19T05:08:54;35.75;;;19.17;;
63112;SDS011;49206;48.020;21.378;2023-03-19T05:09:57;37.45;;;22.25;;
63112;SDS011;49206;48.020;21.378;2023-03-19T05:11:00;33.28;;;20.48;;
63112;SDS011;49206;48.020;21.378;2023-03-19T05:12:09;36.50;;;23.15;;
63112;SDS011;49206;48.020;21.378;2023-03-19T05:13:16;34.78;;;20.65;;
63112;SDS011;49206;48.020;21.378;2023-03-19T05:14:24;40.78;;;21.48;;
63112;SDS011;49206;48.020;21.378;2023-03-19T05:15:35;41.40;;;21.20;;
63112;SDS011;49206;48.020;21.378;2023-03-19T05:16:40;39.20;;;23.40;;
63112;SDS011;49206;48.020;21.378;2023-03-19T05:17:43;39.78;;;24.23;;
63112;SDS011;49206;48.020;21.378;2023-03-19T05:18:49;41.63;;;25.00;;
63112;SDS011;49206;48.020;21.378;2023-03-19T05:19:52;40.58;;;24.23;;
63112;SDS011;49206;48.020;21.378;2023-03-19T05:20:55;37.85;;;21.38;;
63112;SDS011;49206;48.020;21.378;2023-03-19T05:21:59;38.78;;;22.80;;
63112;SDS011;49206;48.020;21.378;2023-03-19T05:23:02;42.65;;;23.42;;
63112;SDS011;49206;48.020;21.378;2023-03-19T05:24:15;43.10;;;23.00;;
63112;SDS011;49206;48.020;21.378;2023-03-19T05:25:18;44.20;;;21.65;;
63112;SDS011;49206;48.020;21.378;2023-03-19T05:26:21;41.47;;;22.25;;
63112;SDS011;49206;48.020;21.378;2023-03-19T05:27:51;34.92;;;19.77;;
63112;SDS011;49206;48.020;21.378;2023-03-19T05:29:11;34.67;;;20.08;;
63112;SDS011;49206;48.020;21.378;2023-03-19T05:30:34;32.75;;;19.50;;
63112;SDS011;49206;48.020;21.378;2023-03-19T05:31:37;37.75;;;21.27;;
63112;SDS011;49206;48.020;21.378;2023-03-19T05:32:40;41.63;;;21.55;;
63112;SDS011;49206;48.020;21.378;2023-03-19T05:33:49;37.97;;;21.90;;
63112;SDS011;49206;48.020;21.378;2023-03-19T05:34:51;32.10;;;20.85;;
63112;SDS011;49206;48.020;21.378;2023-03-19T05:35:54;36.17;;;22.40;;
63112;SDS011;49206;48.020;21.378;2023-03-19T05:37:08;37.25;;;22.80;;
63112;SDS011;49206;48.020;21.378;2023-03-19T05:38:11;35.53;;;21.05;;
63112;SDS011;49206;48.020;21.378;2023-03-19T05:39:25;34.33;;;23.08;;
63112;SDS011;49206;48.020;21.378;2023-03-19T05:40:31;39.75;;;23.40;;
63112;SDS011;49206;48.020;21.378;2023-03-19T05:41:46;34.90;;;19.92;;
63112;SDS011;49206;48.020;21.378;2023-03-19T05:42:53;37.65;;;22.23;;
63112;SDS011;49206;48.020;21.378;2023-03-19T05:43:59;33.15;;;20.70;;
63112;SDS011;49206;48.020;21.378;2023-03-19T05:45:22;31.60;;;20.60;;
63112;SDS011;49206;48.020;21.378;2023-03-19T05:46:28;40.47;;;23.15;;
63112;SDS011;49206;48.020;21.378;2023-03-19T05:47:30;38.97;;;24.17;;
63112;SDS011;49206;48.020;21.378;2023-03-19T05:48:33;32.95;;;19.30;;
63112;SDS011;49206;48.020;21.378;2023-03-19T05:50:40;32.75;;;18.98;;
63112;SDS011;49206;48.020;21.378;2023-03-19T05:51:52;41.05;;;24.23;;
63112;SDS011;49206;48.020;21.378;2023-03-19T05:52:55;37.65;;;23.85;;
63112;SDS011;49206;48.020;21.378;2023-03-19T05:53:58;40.58;;;24.00;;
63112;SDS011;49206;48.020;21.378;2023-03-19T05:55:18;38.25;;;21.92;;
63112;SDS011;49206;48.020;21.378;2023-03-19T05:56:25;38.67;;;23.55;;
63112;SDS011;49206;48.020;21.378;2023-03-19T05:57:48;39.97;;;20.42;;
63112;SDS011;49206;48.020;21.378;2023-03-19T05:58:53;37.90;;;21.95;;
63112;SDS011;49206;48.020;21.378;2023-03-19T06:00:02;38.95;;;22.17;;
63112;SDS011;49206;48.020;21.378;2023-03-19T06:01:08;40.65;;;21.45;;
63112;SDS011;49206;48.020;21.378;2023-03-19T06:02:11;42.88;;;22.88;;
63112;SDS011;49206;48.020;21.378;2023-03-19T06:03:14;36.35;;;21.35;;
63112;SDS011;49206;48.020;21.378;2023-03-19T06:04:21;36.70;;;20.38;;
63112;SDS011;49206;48.020;21.378;2023-03-19T06:05:24;33.28;;;20.02;;
63112;SDS011;49206;48.020;21.378;2023-03-19T06:06:31;33.33;;;21.05;;
63112;SDS011;49206;48.020;21.378;2023-03-19T06:07:33;36.65;;;21.45;;
63112;SDS011;49206;48.020;21.378;2023-03-19T06:08:37;34.97;;;21.00;;
63112;SDS011;49206;48.020;21.378;2023-03-19T06:09:43;32.58;;;22.25;;
63112;SDS011;49206;48.020;21.378;2023-03-19T06:10:47;42.15;;;24.60;;
63112;SDS011;49206;48.020;21.378;2023-03-19T06:11:50;43.33;;;25.83;;
63112;SDS011;49206;48.020;21.378;2023-03-19T06:13:11;45.40;;;28.17;;
63112;SDS011;49206;48.020;21.378;2023-03-19T06:14:18;40.55;;;26.15;;
63112;SDS011;49206;48.020;21.378;2023-03-19T06:15:33;44.72;;;26.23;;
63112;SDS011;49206;48.020;21.378;2023-03-19T06:17:02;62.65;;;32.35;;
63112;SDS011;49206;48.020;21.378;2023-03-19T06:18:12;70.22;;;42.47;;
63112;SDS011;49206;48.020;21.378;2023-03-19T06:19:14;56.78;;;36.58;;
63112;SDS011;49206;48.020;21.378;2023-03-19T06:20:17;48.35;;;30.75;;
63112;SDS011;49206;48.020;21.378;2023-03-19T06:21:21;45.72;;;30.08;;
63112;SDS011;49206;48.020;21.378;2023-03-19T06:22:24;46.05;;;30.13;;
63112;SDS011;49206;48.020;21.378;2023-03-19T06:23:27;40.95;;;26.77;;
63112;SDS011;49206;48.020;21.378;2023-03-19T06:24:36;34.80;;;21.27;;